Speaks, Texas
Current Conditions -  °F | °C
As of 4:35 PM on Friday 24 Oct 2014 (Local Time) from K66R Reporting Station
Clear Clear  
Wind Chill: 82°   Ceiling: Unl
Heat Index: 82°   Visibility: 10mi
Dew Point: 58°   Wind: 3mph
Humidity: 43%   Direction: 80°E
Pressure: 30.08"   Gusts: NA
Location:  29.25°N, 96.7°W
Report Text: K66R 242135Z AUTO 08003KT 10SM CLR 28/14 A3008 RMK AO2 T02800142
Loading
Personal Weather Stations






























Interactive Weather Map
Tropical Storm Tracking
New forecast layout! Learn more

10-Day Weather Forecast

Advertisements
Track Severe Weather on mobile